2022/05/19 06:00 YSSY 190600Z 17008KT 9999 FEW040 BKN300 17/05 Q1025
2022/05/19 06:00 YMML 190600Z 18011KT 9999 SCT032 BKN044 13/07 Q1030
2022/05/19 06:00 YSCB 190600Z AUTO 14007KT 9999 // NCD 13/01 Q1026
2022/05/19 05:30 YPAD 190530Z 23006KT CAVOK 16/08 Q1029
2022/05/19 05:30 YPPH 190530Z 03005KT 9999 FEW026 21/14 Q1016
2022/05/19 06:00 YBBN 190600Z 14008KT 9999 FEW037 BKN066 22/16 Q1021
2022/05/19 05:30 YMHB 190530Z 21006KT 9999 FEW046 13/02 Q1024
2022/05/19 06:00 NZAA 190600Z AUTO 31006KT 280V360 9999 FEW025/// 17/15 Q1011 NOSIG
2022/05/19 06:00 NZCH 190600Z AUTO 28004KT 9999 NCD 13/04 Q0996 TEMPO 30015G25KT

Powered by MinhViet JSC.